createdAt,value
2019-04-10T04:42:57.841Z,99.90
2019-04-10T04:45:27.838Z,99.90
2019-04-10T04:47:57.630Z,99.90
2019-04-10T04:50:27.186Z,99.90
2019-04-10T04:52:56.658Z,99.90
2019-04-10T04:55:26.142Z,99.90
2019-04-10T04:57:55.636Z,99.90
2019-04-10T05:00:25.771Z,99.90
2019-04-10T05:02:55.832Z,99.90
2019-04-10T05:05:25.638Z,99.90
2019-04-10T05:08:00.070Z,99.90
2019-04-10T05:10:26.325Z,99.90
2019-04-10T05:12:56.197Z,99.90
2019-04-10T05:15:25.651Z,99.90
2019-04-10T05:17:55.607Z,99.90
2019-04-10T05:22:56.154Z,99.90
2019-04-10T05:25:25.702Z,99.90
2019-04-10T05:27:55.449Z,99.90
2019-04-10T05:30:25.124Z,99.90
2019-04-10T05:32:55.467Z,99.90
2019-04-10T05:35:25.724Z,99.90
2019-04-10T05:37:56.125Z,99.90
2019-04-10T05:40:25.972Z,99.90
2019-04-10T05:42:57.442Z,99.90
2019-04-10T05:45:27.638Z,99.90
2019-04-10T05:47:57.266Z,99.90
2019-04-10T05:55:26.602Z,99.90
2019-04-10T05:57:56.066Z,99.90
2019-04-10T06:00:25.571Z,99.90
2019-04-10T06:02:56.436Z,99.90
2019-04-10T06:07:57.166Z,99.90
2019-04-10T06:12:56.362Z,99.90
2019-04-10T06:20:26.115Z,99.90
2019-04-10T06:25:25.043Z,99.90
2019-04-10T06:27:54.716Z,99.90
2019-04-10T06:30:24.146Z,99.90
2019-04-10T06:37:54.725Z,97.70
2019-04-10T06:50:24.444Z,88.00
2019-04-10T07:00:25.010Z,82.50
2019-04-10T07:02:54.726Z,80.70
2019-04-10T07:10:29.901Z,77.30
2019-04-10T07:55:19.638Z,58.60
2019-04-10T07:57:50.700Z,57.50
2019-04-10T08:00:20.218Z,56.50
2019-04-10T08:07:48.567Z,56.40
2019-04-10T08:10:18.139Z,56.00
2019-04-10T08:12:53.059Z,56.10
2019-04-10T08:15:19.215Z,55.00
2019-04-10T08:17:50.822Z,52.90
2019-04-10T08:20:19.852Z,54.50
2019-04-10T08:27:48.110Z,54.60
2019-04-10T08:30:17.572Z,53.90
2019-04-10T08:32:56.351Z,50.60
2019-04-10T08:40:16.474Z,52.90
2019-04-10T08:42:46.638Z,52.10
2019-04-10T08:45:16.994Z,52.70
2019-04-10T08:47:46.395Z,51.40
2019-04-10T08:50:15.965Z,50.90
2019-04-10T08:52:46.525Z,50.20
2019-04-10T08:55:17.620Z,50.70
2019-04-10T08:57:47.461Z,49.70
2019-04-10T09:00:17.047Z,49.10
2019-04-10T09:02:46.805Z,49.60
2019-04-10T09:05:17.423Z,48.80
2019-04-10T09:07:46.961Z,49.30
2019-04-10T09:12:47.159Z,49.50
2019-04-10T09:15:18.048Z,51.50
2019-04-10T09:17:47.696Z,48.70
2019-04-10T09:20:18.414Z,49.40
2019-04-10T09:23:10.410Z,48.00
2019-04-10T09:25:19.714Z,47.70
2019-04-10T09:27:49.728Z,48.50
2019-04-10T09:30:20.476Z,48.90
2019-04-10T09:32:50.723Z,46.40
2019-04-10T09:37:50.453Z,48.60
2019-04-10T09:42:50.283Z,47.80
2019-04-10T09:45:20.005Z,48.20
2019-04-10T09:47:50.218Z,48.10
2019-04-10T09:52:50.278Z,47.20
2019-04-10T09:55:20.325Z,48.30
2019-04-10T09:57:49.851Z,47.60
2019-04-10T10:02:50.733Z,47.10
2019-04-10T10:07:50.671Z,49.80
2019-04-10T10:10:20.637Z,47.80
2019-04-10T10:15:20.969Z,45.30
2019-04-10T10:17:50.988Z,45.80
2019-04-10T10:20:21.809Z,45.50
2019-04-10T10:25:21.671Z,46.10
2019-04-10T10:27:51.060Z,45.40
2019-04-10T10:30:20.992Z,46.00
2019-04-10T10:32:51.052Z,44.40
2019-04-10T10:35:20.708Z,44.20
2019-04-10T10:40:20.432Z,44.10
2019-04-10T10:42:50.022Z,45.80
2019-04-10T10:45:20.790Z,44.50
2019-04-10T10:47:50.679Z,43.70
2019-04-10T10:50:22.097Z,43.10
2019-04-10T10:52:52.154Z,45.20
2019-04-10T10:57:51.413Z,46.20
2019-04-10T11:00:23.105Z,45.30
2019-04-10T11:02:53.927Z,42.70
2019-04-10T11:05:23.776Z,45.60
2019-04-10T11:07:53.251Z,44.90
2019-04-10T11:20:24.166Z,43.10
2019-04-10T11:22:53.791Z,41.70
2019-04-10T11:25:23.780Z,42.70
2019-04-10T11:27:53.948Z,42.80
2019-04-10T11:30:24.879Z,42.90
2019-04-10T11:35:24.542Z,41.60
2019-04-10T11:40:26.756Z,42.80
2019-04-10T11:47:58.950Z,42.80
2019-04-10T11:50:30.044Z,42.80
2019-04-10T11:53:02.096Z,41.60
2019-04-10T11:55:42.470Z,41.70
2019-04-10T11:58:03.172Z,41.80
2019-04-10T12:13:16.992Z,40.50
2019-04-10T12:18:14.856Z,41.80
2019-04-10T12:23:14.773Z,40.70
2019-04-10T12:25:45.043Z,41.10
2019-04-10T12:30:43.641Z,39.40
2019-04-10T12:33:13.615Z,39.40
2019-04-10T12:35:43.347Z,40.10
2019-04-10T12:38:13.404Z,39.80
2019-04-10T12:43:12.687Z,40.10
2019-04-10T12:53:09.445Z,41.90
2019-04-10T12:55:39.426Z,40.50
2019-04-10T12:58:13.602Z,38.50
2019-04-10T13:05:41.501Z,41.30
2019-04-10T13:08:20.467Z,41.00
2019-04-10T13:10:43.820Z,40.10
2019-04-10T13:13:13.774Z,40.50
2019-04-10T13:18:14.307Z,41.90
2019-04-10T13:23:15.246Z,41.60
2019-04-10T13:53:13.689Z,42.60
2019-04-10T14:00:43.375Z,42.70
2019-04-10T14:20:42.261Z,44.50
2019-04-10T14:28:53.451Z,44.90
2019-04-10T14:31:26.709Z,45.60
2019-04-10T14:33:58.990Z,45.80
2019-04-10T14:36:29.707Z,46.00
2019-04-10T14:41:31.770Z,46.10
2019-04-10T14:44:01.998Z,46.00
2019-04-10T14:46:31.979Z,47.10
2019-04-10T14:49:02.735Z,46.40
2019-04-10T14:51:32.922Z,47.00
2019-04-10T14:54:03.764Z,48.70
2019-04-10T14:56:34.466Z,47.70
2019-04-10T15:01:34.410Z,47.50
2019-04-10T15:04:04.651Z,48.30
2019-04-10T15:06:34.547Z,48.30
2019-04-10T15:09:06.215Z,48.10
2019-04-10T15:11:35.780Z,49.70
2019-04-10T15:14:05.596Z,49.80
2019-04-10T15:16:35.234Z,50.60
2019-04-10T15:19:04.730Z,51.00
2019-04-10T15:21:34.746Z,54.20
2019-04-10T15:24:04.281Z,55.50
2019-04-10T15:26:33.959Z,57.30
2019-04-10T15:29:03.757Z,58.20
2019-04-10T15:31:33.354Z,59.20
2019-04-10T15:34:03.661Z,59.30
2019-04-10T15:36:34.589Z,59.60
2019-04-10T15:39:06.558Z,59.70
2019-04-10T15:41:36.098Z,60.00
2019-04-10T15:44:05.840Z,61.40
2019-04-10T15:46:35.428Z,62.10
2019-04-10T15:49:05.008Z,62.70
2019-04-10T15:51:34.646Z,62.70
2019-04-10T15:54:05.502Z,63.40
2019-04-10T15:56:36.145Z,64.40
2019-04-10T15:59:06.043Z,64.60
2019-04-10T16:01:35.788Z,64.90
2019-04-10T16:04:05.779Z,65.90
2019-04-10T16:06:35.537Z,66.20
2019-04-10T16:09:07.320Z,67.80
2019-04-10T16:11:45.802Z,66.80
2019-04-10T16:14:20.906Z,67.90
2019-04-10T16:17:04.686Z,68.70
2019-04-10T16:19:42.951Z,70.00
2019-04-10T16:22:36.640Z,71.30
2019-04-10T16:25:34.029Z,72.00
2019-04-10T16:28:06.153Z,73.50
2019-04-10T16:30:37.066Z,74.80
2019-04-10T16:33:07.093Z,75.60
2019-04-10T16:35:38.331Z,77.10
2019-04-10T16:38:08.547Z,79.10
2019-04-10T16:40:38.465Z,81.00
2019-04-10T16:43:08.112Z,83.00
2019-04-10T16:45:38.495Z,88.80
2019-04-10T16:48:08.614Z,90.20
2019-04-10T16:50:38.431Z,91.20
2019-04-10T16:53:09.645Z,92.50
2019-04-10T16:55:39.486Z,93.90
2019-04-10T16:58:09.607Z,96.10
2019-04-10T17:00:39.724Z,97.30
2019-04-10T17:03:09.481Z,98.90
2019-04-10T17:05:39.773Z,99.90
2019-04-10T17:08:09.816Z,99.90
2019-04-10T17:10:40.765Z,99.90
2019-04-10T17:13:10.823Z,99.90
2019-04-10T17:15:40.606Z,99.90
2019-04-10T17:18:10.804Z,99.90
2019-04-10T17:20:42.705Z,99.90
2019-04-10T17:23:12.394Z,99.90
2019-04-10T17:25:42.392Z,99.90
2019-04-10T17:28:12.337Z,99.90
2019-04-10T17:30:42.386Z,99.90
2019-04-10T17:33:13.169Z,99.90
2019-04-10T17:35:43.464Z,99.90
2019-04-10T17:38:14.245Z,99.90
2019-04-10T17:40:48.801Z,99.90
2019-04-10T17:43:15.350Z,99.90
2019-04-10T17:45:44.934Z,99.90
2019-04-10T17:48:15.648Z,99.90
2019-04-10T17:50:45.691Z,99.90
2019-04-10T17:53:17.122Z,99.90
2019-04-10T17:55:47.478Z,99.90
2019-04-10T17:58:21.168Z,99.90
2019-04-10T18:00:53.565Z,99.90
2019-04-10T18:03:23.828Z,99.90
2019-04-10T18:05:53.478Z,99.90
2019-04-10T18:08:26.370Z,99.90
2019-04-10T18:10:56.825Z,99.90
2019-04-10T18:13:26.692Z,99.90
2019-04-10T18:15:57.070Z,99.90
2019-04-10T18:18:27.496Z,99.90
2019-04-10T18:20:58.173Z,99.90
2019-04-10T18:23:28.271Z,99.90
2019-04-10T18:25:58.411Z,99.90
2019-04-10T18:28:30.609Z,99.90
2019-04-10T18:31:00.712Z,99.90
2019-04-10T18:33:30.882Z,99.90
2019-04-10T18:36:01.114Z,99.90
2019-04-10T18:38:30.640Z,99.90
2019-04-10T18:41:03.753Z,99.90
2019-04-10T18:43:31.937Z,99.90
2019-04-10T18:46:08.675Z,99.90
2019-04-10T18:48:34.559Z,99.90
2019-04-10T18:51:06.639Z,99.90
2019-04-10T18:53:35.418Z,99.90
2019-04-10T18:56:05.186Z,99.90
2019-04-10T18:58:40.410Z,99.90
2019-04-10T19:01:28.756Z,99.90
2019-04-10T19:04:16.237Z,99.90
2019-04-10T19:06:58.757Z,99.90
2019-04-10T19:09:30.836Z,99.90
2019-04-10T19:12:00.673Z,99.90
2019-04-10T19:14:30.708Z,99.90
2019-04-10T19:17:00.575Z,99.90
2019-04-10T19:19:30.817Z,99.90
2019-04-10T19:22:00.413Z,99.90
2019-04-10T19:24:30.539Z,99.90
2019-04-10T19:27:00.337Z,99.90
2019-04-10T19:29:29.935Z,99.90
2019-04-10T19:32:02.175Z,99.90
2019-04-10T19:34:33.809Z,99.90
2019-04-10T19:37:04.106Z,99.90
2019-04-10T19:39:34.239Z,99.90
2019-04-10T19:42:04.971Z,99.90
2019-04-10T19:44:35.225Z,99.90
2019-04-10T19:47:06.099Z,99.90
2019-04-10T19:49:37.003Z,99.90
2019-04-10T19:52:08.510Z,99.90
2019-04-10T19:54:38.775Z,99.90
2019-04-10T19:57:08.970Z,99.90
2019-04-10T19:59:39.854Z,99.90
2019-04-10T20:02:10.790Z,99.90
2019-04-10T20:04:40.973Z,99.90
2019-04-10T20:07:11.206Z,99.90
2019-04-10T20:09:41.044Z,99.90
2019-04-10T20:12:11.124Z,99.90
2019-04-10T20:14:40.938Z,99.90
2019-04-10T20:17:11.511Z,99.90
2019-04-10T20:19:42.539Z,99.90
2019-04-10T20:22:12.711Z,99.90
2019-04-10T20:24:43.127Z,99.90
2019-04-10T20:27:14.061Z,99.90
2019-04-10T20:29:45.238Z,99.90
2019-04-10T20:32:15.854Z,99.90
2019-04-10T20:34:45.758Z,99.90
2019-04-10T20:37:15.513Z,99.90
2019-04-10T20:39:45.478Z,99.90
2019-04-10T20:42:16.138Z,99.90
2019-04-10T20:44:47.072Z,99.90
2019-04-10T20:47:17.228Z,99.90
2019-04-10T20:49:47.061Z,99.90
2019-04-10T20:52:17.930Z,99.90
2019-04-10T20:54:48.879Z,99.90
2019-04-10T20:57:19.411Z,99.90
2019-04-10T20:59:49.646Z,99.90
2019-04-10T21:02:20.242Z,99.90
2019-04-10T21:04:56.630Z,99.90
2019-04-10T21:07:21.991Z,99.90
2019-04-10T21:09:52.386Z,99.90
2019-04-10T21:12:22.288Z,99.90
2019-04-10T21:14:52.554Z,99.90
2019-04-10T21:17:22.683Z,99.90
2019-04-10T21:22:22.403Z,99.90
2019-04-10T21:24:52.394Z,99.90
2019-04-10T21:27:22.816Z,99.90
2019-04-10T21:30:17.845Z,99.90
2019-04-10T21:33:07.863Z,99.90
2019-04-10T21:35:38.246Z,99.90
2019-04-10T21:38:08.174Z,99.90
2019-04-10T21:40:38.804Z,99.90
2019-04-10T21:43:08.820Z,99.90
2019-04-10T21:45:39.158Z,99.90
2019-04-10T21:48:09.193Z,99.90
2019-04-10T21:50:39.792Z,99.90
2019-04-10T21:53:10.163Z,99.90
2019-04-10T21:55:39.909Z,99.90
2019-04-10T21:58:10.214Z,99.90
2019-04-10T22:00:59.052Z,99.90
2019-04-10T22:03:29.598Z,99.90
2019-04-10T22:06:30.372Z,99.90
2019-04-10T22:09:28.603Z,99.90
2019-04-10T22:12:01.493Z,99.90
2019-04-10T22:14:31.238Z,99.90
2019-04-10T22:17:00.915Z,99.90
2019-04-10T22:19:30.614Z,99.90
2019-04-10T22:22:00.479Z,99.90
2019-04-10T22:24:30.397Z,99.90
2019-04-10T22:27:00.873Z,99.90
2019-04-10T22:29:30.616Z,99.90
2019-04-10T22:32:00.602Z,99.90
2019-04-10T22:34:30.335Z,99.90
2019-04-10T22:37:00.224Z,99.90
2019-04-10T22:39:30.121Z,99.90
2019-04-10T22:41:59.783Z,99.90
2019-04-10T22:44:37.525Z,99.90
2019-04-10T22:47:00.945Z,99.90
2019-04-10T22:49:31.126Z,99.90
2019-04-10T22:52:00.905Z,99.90
2019-04-10T22:54:30.695Z,99.90
2019-04-10T22:57:00.661Z,99.90
2019-04-10T22:59:30.560Z,99.90
2019-04-10T23:02:07.209Z,99.90
2019-04-10T23:04:32.805Z,99.90
2019-04-10T23:07:03.846Z,99.90
2019-04-10T23:09:33.740Z,99.90
2019-04-10T23:12:03.873Z,99.90
2019-04-10T23:14:34.440Z,99.90
2019-04-10T23:17:04.285Z,99.90
2019-04-10T23:19:34.225Z,99.90
2019-04-10T23:22:05.394Z,99.90
2019-04-10T23:24:35.917Z,99.90
2019-04-10T23:27:05.950Z,99.90
2019-04-10T23:29:36.230Z,99.90
2019-04-10T23:32:05.905Z,99.90
2019-04-10T23:34:36.706Z,99.90
2019-04-10T23:37:06.807Z,99.90
2019-04-10T23:39:36.773Z,99.90
2019-04-10T23:42:07.491Z,99.90
2019-04-10T23:44:37.491Z,99.90
2019-04-10T23:47:07.531Z,99.90
2019-04-10T23:49:37.466Z,99.90
2019-04-10T23:52:07.635Z,99.90
2019-04-10T23:54:37.550Z,99.90
2019-04-10T23:57:07.395Z,99.90
2019-04-10T23:59:37.495Z,99.90
